Terminal Aerodrome Forecast
Issued by NWS Cleveland, OH

Home | Current Version | Previous Version | Text Only | Print | Product List | Glossary On
Versions: 1 2 3 4 5 6 7 8 9 10 11 12 13 14 15 16 17 18 19 20 21 22 23
496
FTUS41 KCLE 291134
TAFCLE
TAF
KCLE 291134Z 2912/3018 02004KT 3SM BR VCSH OVC015
      TEMPO 2912/2916 1 1/2SM -SHRA BR BKN005
     FM291600 03008KT 6SM -SHRA OVC008
     FM292100 03009KT P6SM OVC015
     FM300000 05007KT P6SM BKN025
     FM300900 06008KT P6SM BKN007=

USA.gov is the U.S. government's official web portal to all federal, state and local government web resources and services.